createdAt,value
2018-12-19T00:02:29.215Z,0.30
2018-12-19T00:05:00.472Z,0.30
2018-12-19T00:07:41.177Z,0.20
2018-12-19T00:10:11.698Z,0.20
2018-12-19T00:12:52.168Z,0.20
2018-12-19T00:15:22.710Z,0.20
2018-12-19T00:18:03.267Z,0.20
2018-12-19T00:20:36.616Z,0.10
2018-12-19T00:23:17.268Z,0.20
2018-12-19T00:25:51.407Z,0.10
2018-12-19T00:28:31.975Z,0.10
2018-12-19T00:31:03.563Z,0.10
2018-12-19T00:33:32.511Z,0.10
2018-12-19T00:36:13.050Z,0.10
2018-12-19T00:38:53.875Z,0.10
2018-12-19T00:41:25.375Z,0.10
2018-12-19T00:44:05.878Z,0.10
2018-12-19T00:46:46.002Z,0.00
2018-12-19T00:49:19.318Z,0.00
2018-12-19T00:51:59.847Z,0.00
2018-12-19T00:54:40.710Z,0.00
2018-12-19T00:57:20.897Z,0.00
2018-12-19T00:59:54.583Z,0.00
2018-12-19T01:02:35.352Z,0.00
2018-12-19T01:05:15.415Z,0.00
2018-12-19T01:07:46.070Z,0.00
2018-12-19T01:10:16.978Z,-0.10
2018-12-19T01:12:57.443Z,-0.10
2018-12-19T01:15:37.411Z,-0.10
2018-12-19T01:18:17.384Z,-0.10
2018-12-19T01:20:47.911Z,-0.10
2018-12-19T01:23:21.799Z,0.00
2018-12-19T01:25:55.554Z,-0.10
2018-12-19T01:28:24.783Z,0.00
2018-12-19T01:30:55.702Z,0.00
2018-12-19T01:33:36.374Z,0.00
2018-12-19T01:36:12.475Z,0.00
2018-12-19T01:38:53.202Z,0.00
2018-12-19T01:41:24.656Z,0.00
2018-12-19T01:44:05.090Z,0.00
2018-12-19T01:46:45.933Z,0.00
2018-12-19T01:49:25.990Z,0.00
2018-12-19T01:52:06.030Z,0.00
2018-12-19T01:54:46.063Z,0.00
2018-12-19T01:57:26.167Z,0.00
2018-12-19T01:59:59.435Z,0.00
2018-12-19T02:02:40.047Z,0.00
2018-12-19T02:05:20.016Z,0.00
2018-12-19T02:08:00.059Z,0.00
2018-12-19T02:10:31.502Z,0.00
2018-12-19T02:13:12.135Z,0.00
2018-12-19T02:15:52.086Z,0.00
2018-12-19T02:18:25.698Z,0.00
2018-12-19T02:20:56.603Z,0.00
2018-12-19T02:23:37.080Z,0.00
2018-12-19T02:26:17.803Z,0.00
2018-12-19T02:28:57.775Z,-0.10
2018-12-19T02:31:31.966Z,-0.10
2018-12-19T02:34:13.040Z,-0.10
2018-12-19T02:36:53.947Z,-0.10
2018-12-19T02:39:28.149Z,0.00
2018-12-19T02:42:08.900Z,0.00
2018-12-19T02:44:48.925Z,0.00
2018-12-19T02:47:29.763Z,0.00
2018-12-19T02:50:01.210Z,0.00
2018-12-19T02:52:41.487Z,0.00
2018-12-19T02:55:22.204Z,0.00
2018-12-19T02:58:03.143Z,0.10
2018-12-19T03:00:37.290Z,0.10
2018-12-19T03:03:17.740Z,0.10
2018-12-19T03:05:48.331Z,0.10
2018-12-19T03:08:28.938Z,0.10
2018-12-19T03:11:00.570Z,0.10
2018-12-19T03:13:31.454Z,0.20
2018-12-19T03:16:12.175Z,0.20
2018-12-19T03:18:52.307Z,0.30
2018-12-19T03:21:23.723Z,0.20
2018-12-19T03:24:04.084Z,0.30
2018-12-19T03:26:44.797Z,0.30
2018-12-19T03:29:24.806Z,0.30
2018-12-19T03:31:59.123Z,0.40
2018-12-19T03:34:39.695Z,0.40
2018-12-19T03:37:19.815Z,0.40
2018-12-19T03:39:50.532Z,0.40
2018-12-19T03:42:30.691Z,0.40
2018-12-19T03:45:01.335Z,0.40
2018-12-19T03:47:41.697Z,0.40
2018-12-19T03:50:15.195Z,0.40
2018-12-19T03:52:44.134Z,0.40
2018-12-19T03:55:24.879Z,0.40
2018-12-19T03:58:05.095Z,0.40
2018-12-19T04:00:35.707Z,0.40
2018-12-19T04:03:16.235Z,0.40
2018-12-19T04:05:56.359Z,0.40
2018-12-19T04:08:27.035Z,0.40
2018-12-19T04:11:00.831Z,0.40
2018-12-19T04:13:41.636Z,0.40
2018-12-19T04:16:21.694Z,0.40
2018-12-19T04:19:01.831Z,0.40
2018-12-19T04:21:35.176Z,0.40
2018-12-19T04:24:04.408Z,0.40
2018-12-19T04:26:35.199Z,0.40
2018-12-19T04:31:47.794Z,0.40
2018-12-19T04:34:21.099Z,0.40
2018-12-19T04:37:01.592Z,0.40
2018-12-19T04:39:33.068Z,0.40
2018-12-19T04:42:13.471Z,0.40
2018-12-19T04:44:53.571Z,0.50
2018-12-19T04:47:34.283Z,0.50
2018-12-19T04:50:14.360Z,0.50
2018-12-19T04:52:54.455Z,0.50
2018-12-19T04:55:35.335Z,0.50
2018-12-19T04:58:16.232Z,0.50
2018-12-19T05:00:49.679Z,0.50
2018-12-19T05:03:30.230Z,0.50
2018-12-19T05:06:01.465Z,0.40
2018-12-19T05:08:34.802Z,0.40
2018-12-19T05:11:06.063Z,0.40
2018-12-19T05:13:46.479Z,0.40
2018-12-19T05:16:17.906Z,0.40
2018-12-19T05:18:58.151Z,0.40
2018-12-19T05:21:38.948Z,0.40
2018-12-19T05:24:19.870Z,0.40
2018-12-19T05:26:53.219Z,0.40
2018-12-19T05:29:22.366Z,0.40
2018-12-19T05:32:02.747Z,0.40
2018-12-19T05:34:36.134Z,0.50
2018-12-19T05:37:16.567Z,0.50
2018-12-19T05:39:49.892Z,0.50
2018-12-19T05:42:30.496Z,0.40
2018-12-19T05:45:01.119Z,0.50
2018-12-19T05:47:30.424Z,0.50
2018-12-19T05:50:01.379Z,0.50
2018-12-19T05:52:35.088Z,0.50
2018-12-19T05:55:15.454Z,0.50
2018-12-19T05:57:56.368Z,0.50
2018-12-19T06:00:26.982Z,0.50
2018-12-19T06:03:07.386Z,0.50
2018-12-19T06:05:47.487Z,0.50
2018-12-19T06:08:20.851Z,0.50
2018-12-19T06:10:52.159Z,0.50
2018-12-19T06:13:32.625Z,0.60
2018-12-19T06:16:12.675Z,0.50
2018-12-19T06:18:52.771Z,0.50
2018-12-19T06:21:23.394Z,0.50
2018-12-19T06:24:01.159Z,0.50
2018-12-19T06:26:41.277Z,0.50
2018-12-19T06:29:11.867Z,0.50
2018-12-19T06:31:52.118Z,0.50
2018-12-19T06:34:32.386Z,0.40
2018-12-19T06:37:13.119Z,0.40
2018-12-19T06:39:43.662Z,0.40
2018-12-19T06:42:24.037Z,0.40
2018-12-19T06:45:04.062Z,0.40
2018-12-19T06:47:44.159Z,0.40
2018-12-19T06:50:17.535Z,0.30
2018-12-19T06:52:51.430Z,0.30
2018-12-19T06:55:29.095Z,0.30
2018-12-19T06:58:03.168Z,0.30
2018-12-19T07:00:34.215Z,0.30
2018-12-19T07:03:14.607Z,0.30
2018-12-19T07:05:45.226Z,0.30
2018-12-19T07:08:19.035Z,0.30
2018-12-19T07:10:53.094Z,0.30
2018-12-19T07:13:24.179Z,0.30
2018-12-19T07:16:04.716Z,0.30
2018-12-19T07:18:44.646Z,0.40
2018-12-19T07:21:15.291Z,0.40
2018-12-19T07:23:49.281Z,0.40
2018-12-19T07:26:29.779Z,0.30
2018-12-19T07:29:09.797Z,0.30
2018-12-19T07:31:49.751Z,0.30
2018-12-19T07:34:30.480Z,0.30
2018-12-19T07:37:10.475Z,0.30
2018-12-19T07:39:41.061Z,0.30
2018-12-19T07:42:18.779Z,0.30
2018-12-19T07:44:47.883Z,0.30
2018-12-19T07:47:28.391Z,0.40
2018-12-19T07:49:59.107Z,0.40
2018-12-19T07:52:39.563Z,0.40
2018-12-19T07:55:19.634Z,0.40
2018-12-19T07:57:59.608Z,0.40
2018-12-19T08:00:39.583Z,0.50
2018-12-19T08:03:13.780Z,0.50
2018-12-19T08:05:54.582Z,0.50
2018-12-19T08:08:35.400Z,0.50
2018-12-19T08:11:05.955Z,0.50
2018-12-19T08:13:46.303Z,0.60
2018-12-19T08:16:19.601Z,0.60
2018-12-19T08:19:00.220Z,0.60
2018-12-19T08:21:30.747Z,0.60
2018-12-19T08:24:11.111Z,0.60
2018-12-19T08:26:48.371Z,0.70
2018-12-19T08:29:22.347Z,0.70
2018-12-19T08:32:02.947Z,0.70
2018-12-19T08:34:42.905Z,0.70
2018-12-19T08:37:22.947Z,0.80
2018-12-19T08:39:56.330Z,0.80
2018-12-19T08:42:36.966Z,0.80
2018-12-19T08:45:14.990Z,0.90
2018-12-19T08:47:48.258Z,0.90
2018-12-19T08:50:22.231Z,0.90
2018-12-19T08:52:53.680Z,0.90
2018-12-19T08:55:34.015Z,1.00
2018-12-19T08:58:03.451Z,1.00
2018-12-19T09:00:34.531Z,1.00
2018-12-19T09:03:15.038Z,1.00
2018-12-19T09:05:49.235Z,1.00
2018-12-19T09:08:30.136Z,1.00
2018-12-19T09:11:05.815Z,1.10
2018-12-19T09:13:40.191Z,1.10
2018-12-19T09:16:11.327Z,1.10
2018-12-19T09:18:51.707Z,1.20
2018-12-19T09:21:25.023Z,1.20
2018-12-19T09:24:05.635Z,1.20
2018-12-19T09:26:45.748Z,1.20
2018-12-19T09:29:26.571Z,1.30
2018-12-19T09:32:04.023Z,1.30
2018-12-19T09:34:35.023Z,1.30
2018-12-19T09:37:15.575Z,1.30
2018-12-19T09:39:46.287Z,1.40
2018-12-19T09:42:26.820Z,1.30
2018-12-19T09:45:07.641Z,1.40
2018-12-19T09:47:48.959Z,1.40
2018-12-19T09:50:28.891Z,1.40
2018-12-19T09:53:09.155Z,1.40
2018-12-19T09:55:49.102Z,1.40
2018-12-19T09:58:29.107Z,1.40
2018-12-19T10:00:59.623Z,1.40
2018-12-19T10:03:28.803Z,1.40
2018-12-19T10:06:09.365Z,1.40
2018-12-19T10:08:50.277Z,1.40
2018-12-19T10:11:21.097Z,1.40
2018-12-19T10:13:54.904Z,1.50
2018-12-19T10:16:28.785Z,1.50
2018-12-19T10:19:09.332Z,1.50
2018-12-19T10:21:49.367Z,1.50
2018-12-19T10:24:35.215Z,1.50
2018-12-19T10:27:08.522Z,1.50
2018-12-19T10:29:39.872Z,1.60
2018-12-19T10:32:20.652Z,1.60
2018-12-19T10:34:54.863Z,1.60
2018-12-19T10:37:35.705Z,1.70
2018-12-19T10:40:16.547Z,1.70
2018-12-19T10:42:47.088Z,1.70
2018-12-19T10:45:27.532Z,1.70
2018-12-19T10:48:07.718Z,1.80
2018-12-19T10:50:39.166Z,1.80
2018-12-19T10:53:19.812Z,1.80
2018-12-19T10:55:59.783Z,1.80
2018-12-19T10:58:39.811Z,1.80
2018-12-19T11:01:20.707Z,1.80
2018-12-19T11:04:00.864Z,1.80
2018-12-19T11:06:40.882Z,1.80
2018-12-19T11:09:15.138Z,1.80
2018-12-19T11:11:55.478Z,1.90
2018-12-19T11:14:36.379Z,1.90
2018-12-19T11:17:16.572Z,1.90
2018-12-19T11:19:47.826Z,1.90
2018-12-19T11:22:28.379Z,1.90
2018-12-19T11:25:04.799Z,1.90
2018-12-19T11:27:45.146Z,1.90
2018-12-19T11:30:16.682Z,1.90
2018-12-19T11:32:57.180Z,2.00
2018-12-19T11:35:37.130Z,1.90
2018-12-19T11:38:17.227Z,1.90
2018-12-19T11:40:58.116Z,1.90
2018-12-19T11:43:38.199Z,1.90
2018-12-19T11:46:18.148Z,1.90
2018-12-19T11:48:51.539Z,1.90
2018-12-19T11:51:22.731Z,1.90
2018-12-19T11:54:03.467Z,1.90
2018-12-19T11:56:43.507Z,1.90
2018-12-19T11:59:23.464Z,1.90
2018-12-19T12:02:03.487Z,1.90
2018-12-19T12:04:43.463Z,1.90
2018-12-19T12:07:23.523Z,1.90
2018-12-19T12:09:54.088Z,1.90
2018-12-19T12:12:34.599Z,2.00
2018-12-19T12:15:10.718Z,1.90
2018-12-19T12:17:39.834Z,1.90
2018-12-19T12:20:11.208Z,2.00
2018-12-19T12:22:51.832Z,1.90
2018-12-19T12:25:31.919Z,1.90
2018-12-19T12:28:01.323Z,1.90
2018-12-19T12:30:34.990Z,2.00
2018-12-19T12:33:12.815Z,2.00
2018-12-19T12:35:53.204Z,2.00
2018-12-19T12:38:34.309Z,2.00
2018-12-19T12:41:05.703Z,2.00
2018-12-19T12:43:46.298Z,2.00
2018-12-19T12:46:26.273Z,2.00
2018-12-19T12:48:55.723Z,2.10
2018-12-19T12:51:26.965Z,2.10
2018-12-19T12:54:07.443Z,2.10
2018-12-19T12:56:48.279Z,2.10
2018-12-19T12:59:28.292Z,2.20
2018-12-19T13:02:09.066Z,2.20
2018-12-19T13:04:49.075Z,2.20
2018-12-19T13:07:29.067Z,2.20
2018-12-19T13:10:00.544Z,2.20
2018-12-19T13:12:31.479Z,2.20
2018-12-19T13:15:06.171Z,2.10
2018-12-19T13:17:47.238Z,2.10
2018-12-19T13:20:21.956Z,2.10
2018-12-19T13:22:51.155Z,2.10
2018-12-19T13:25:31.711Z,2.10
2018-12-19T13:28:12.659Z,2.10
2018-12-19T13:30:43.246Z,2.10
2018-12-19T13:33:23.509Z,2.10
2018-12-19T13:36:03.976Z,2.10
2018-12-19T13:38:34.995Z,2.10
2018-12-19T13:41:06.028Z,2.10
2018-12-19T13:43:35.154Z,2.10
2018-12-19T13:46:15.572Z,2.10
2018-12-19T13:48:48.972Z,2.10
2018-12-19T13:51:29.768Z,2.20
2018-12-19T13:54:09.693Z,2.20
2018-12-19T13:56:49.675Z,2.20
2018-12-19T13:59:29.639Z,2.20
2018-12-19T14:02:09.670Z,2.20
2018-12-19T14:04:50.647Z,2.20
2018-12-19T14:07:31.288Z,2.20
2018-12-19T14:10:01.861Z,2.30
2018-12-19T14:12:42.163Z,2.20
2018-12-19T14:15:16.352Z,2.30
2018-12-19T14:17:56.887Z,2.20
2018-12-19T14:20:27.402Z,2.30
2018-12-19T14:23:01.183Z,2.30
2018-12-19T14:25:41.852Z,2.30
2018-12-19T14:28:15.195Z,2.20
2018-12-19T14:30:47.119Z,2.20
2018-12-19T14:33:27.975Z,2.20
2018-12-19T14:36:08.897Z,2.20
2018-12-19T14:38:42.802Z,2.20
2018-12-19T14:41:14.436Z,2.20
2018-12-19T14:43:43.359Z,2.20
2018-12-19T14:46:23.870Z,2.20
2018-12-19T14:48:54.586Z,2.20
2018-12-19T14:51:25.727Z,2.20
2018-12-19T14:53:54.662Z,2.20
2018-12-19T14:56:28.362Z,2.20
2018-12-19T14:58:57.264Z,2.20
2018-12-19T15:01:28.199Z,2.20
2018-12-19T15:04:01.963Z,2.20
2018-12-19T15:06:42.567Z,2.20
2018-12-19T15:09:13.091Z,2.20
2018-12-19T15:11:53.573Z,2.20
2018-12-19T15:14:33.488Z,2.20
2018-12-19T15:17:04.943Z,2.20
2018-12-19T15:19:38.802Z,2.20
2018-12-19T15:22:19.391Z,2.20
2018-12-19T15:24:59.356Z,2.20
2018-12-19T15:27:40.310Z,2.20
2018-12-19T15:30:10.822Z,2.20
2018-12-19T15:32:46.958Z,2.20
2018-12-19T15:35:15.780Z,2.20
2018-12-19T15:37:44.845Z,2.20
2018-12-19T15:40:15.738Z,2.20
2018-12-19T15:42:56.103Z,2.20
2018-12-19T15:45:36.999Z,2.20
2018-12-19T15:48:16.970Z,2.20
2018-12-19T15:50:47.591Z,2.20
2018-12-19T15:53:27.913Z,2.20
2018-12-19T15:55:58.476Z,2.20
2018-12-19T15:58:31.948Z,2.20
2018-12-19T16:01:05.920Z,2.20
2018-12-19T16:03:46.464Z,2.20
2018-12-19T16:06:26.610Z,2.20
2018-12-19T16:09:06.639Z,2.20
2018-12-19T16:11:37.291Z,2.10
2018-12-19T16:14:10.906Z,2.10
2018-12-19T16:16:51.507Z,2.10
2018-12-19T16:19:32.379Z,2.10
2018-12-19T16:22:10.451Z,2.10
2018-12-19T16:24:51.083Z,2.10
2018-12-19T16:27:31.035Z,2.10
2018-12-19T16:30:05.118Z,2.10
2018-12-19T16:32:46.064Z,2.10
2018-12-19T16:35:16.587Z,2.10
2018-12-19T16:37:57.035Z,2.10
2018-12-19T16:40:30.307Z,2.10
2018-12-19T16:43:04.361Z,2.10
2018-12-19T16:45:44.770Z,2.10
2018-12-19T16:48:15.622Z,2.10
2018-12-19T16:50:46.775Z,2.10
2018-12-19T16:53:15.923Z,2.10
2018-12-19T16:55:44.928Z,2.10
2018-12-19T16:58:25.519Z,2.10
2018-12-19T17:00:57.926Z,2.10
2018-12-19T17:03:35.830Z,2.10
2018-12-19T17:06:16.465Z,2.10
2018-12-19T17:08:56.746Z,2.10
2018-12-19T17:11:37.572Z,2.10
2018-12-19T17:14:08.115Z,2.10
2018-12-19T17:16:48.859Z,2.10
2018-12-19T17:19:28.860Z,2.10
2018-12-19T17:22:02.386Z,2.10
2018-12-19T17:24:42.787Z,2.10
2018-12-19T17:27:12.206Z,2.10
2018-12-19T17:29:52.823Z,2.10
2018-12-19T17:32:33.023Z,2.10
2018-12-19T17:35:13.031Z,2.10
2018-12-19T17:37:53.931Z,2.10
2018-12-19T17:40:24.455Z,2.10
2018-12-19T17:43:04.999Z,2.10
2018-12-19T17:45:45.074Z,2.10
2018-12-19T17:48:15.712Z,2.10
2018-12-19T17:50:56.105Z,2.10
2018-12-19T17:53:36.899Z,2.10
2018-12-19T17:56:17.596Z,2.10
2018-12-19T17:58:57.559Z,2.10
2018-12-19T18:01:26.886Z,2.10
2018-12-19T18:03:57.993Z,2.10
2018-12-19T18:06:31.443Z,2.10
2018-12-19T18:09:09.724Z,2.10
2018-12-19T18:11:50.048Z,2.10
2018-12-19T18:14:30.119Z,2.10
2018-12-19T18:16:59.537Z,2.10
2018-12-19T18:19:30.592Z,2.10
2018-12-19T18:22:11.065Z,2.10
2018-12-19T18:24:51.862Z,2.10
2018-12-19T18:27:32.013Z,2.10
2018-12-19T18:30:03.418Z,2.10
2018-12-19T18:32:44.163Z,2.10
2018-12-19T18:35:18.216Z,2.10
2018-12-19T18:37:47.682Z,2.10
2018-12-19T18:40:21.424Z,2.10
2018-12-19T18:43:02.060Z,2.10
2018-12-19T18:45:35.322Z,2.10
2018-12-19T18:48:15.859Z,2.10
2018-12-19T18:50:46.466Z,2.10
2018-12-19T18:53:26.847Z,2.10
2018-12-19T18:56:07.672Z,2.10
2018-12-19T18:58:41.867Z,2.10
2018-12-19T19:01:15.703Z,2.10
2018-12-19T19:03:44.829Z,2.00
2018-12-19T19:06:25.000Z,2.10
2018-12-19T19:08:55.532Z,2.00
2018-12-19T19:11:26.837Z,2.00
2018-12-19T19:14:07.667Z,2.10
2018-12-19T19:16:47.636Z,2.10
2018-12-19T19:19:27.599Z,2.00
2018-12-19T19:22:08.490Z,2.00
2018-12-19T19:24:48.591Z,2.00
2018-12-19T19:27:28.619Z,2.00
2018-12-19T19:29:59.272Z,2.00
2018-12-19T19:32:39.691Z,2.00
2018-12-19T19:35:19.843Z,2.00
2018-12-19T19:37:54.027Z,2.00
2018-12-19T19:40:34.686Z,2.00
2018-12-19T19:43:14.731Z,2.00
2018-12-19T19:45:55.459Z,2.00
2018-12-19T19:48:26.063Z,2.00
2018-12-19T19:50:57.144Z,2.00
2018-12-19T19:53:37.420Z,2.00
2018-12-19T19:56:07.967Z,2.00
2018-12-19T19:58:48.514Z,2.00
2018-12-19T20:01:19.059Z,1.90
2018-12-19T20:03:59.678Z,2.00
2018-12-19T20:06:39.776Z,2.00
2018-12-19T20:09:20.467Z,2.00
2018-12-19T20:12:01.519Z,2.00
2018-12-19T20:14:42.517Z,2.00
2018-12-19T20:17:26.498Z,2.00
2018-12-19T20:19:57.116Z,2.00
2018-12-19T20:22:37.475Z,2.00
2018-12-19T20:25:17.548Z,2.00
2018-12-19T20:27:57.511Z,2.00
2018-12-19T20:30:28.225Z,2.00
2018-12-19T20:33:08.900Z,1.90
2018-12-19T20:35:42.287Z,2.00
2018-12-19T20:38:11.850Z,2.00
2018-12-19T20:40:52.255Z,2.00
2018-12-19T20:43:32.312Z,1.90
2018-12-19T20:46:13.279Z,2.00
2018-12-19T20:48:54.160Z,2.00
2018-12-19T20:51:25.622Z,2.00
2018-12-19T20:53:54.948Z,2.00
2018-12-19T20:56:35.227Z,1.90
2018-12-19T20:59:16.160Z,2.00
2018-12-19T21:01:56.194Z,2.00
2018-12-19T21:04:37.190Z,2.00
2018-12-19T21:07:17.429Z,1.90
2018-12-19T21:09:51.833Z,1.90
2018-12-19T21:12:32.224Z,2.00
2018-12-19T21:15:12.228Z,1.90
2018-12-19T21:17:52.317Z,1.90
2018-12-19T21:20:26.276Z,1.90
2018-12-19T21:23:06.951Z,2.00
2018-12-19T21:25:47.869Z,1.90
2018-12-19T21:28:17.442Z,1.90
2018-12-19T21:30:48.504Z,1.90
2018-12-19T21:33:28.841Z,2.00
2018-12-19T21:36:09.725Z,2.00
2018-12-19T21:38:50.587Z,2.00
2018-12-19T21:41:21.147Z,1.90
2018-12-19T21:44:01.680Z,1.90
2018-12-19T21:46:42.583Z,1.90
2018-12-19T21:49:23.386Z,1.90
2018-12-19T21:51:54.002Z,1.90
2018-12-19T21:54:23.341Z,1.90
2018-12-19T21:57:03.918Z,1.90
2018-12-19T21:59:35.366Z,1.90
2018-12-19T22:02:04.435Z,1.90
2018-12-19T22:04:33.438Z,1.90
2018-12-19T22:07:07.327Z,2.00
2018-12-19T22:09:41.327Z,2.00
2018-12-19T22:12:22.074Z,2.00
2018-12-19T22:14:51.528Z,1.90
2018-12-19T22:17:37.765Z,1.90
2018-12-19T22:20:08.639Z,2.00
2018-12-19T22:22:49.472Z,2.00
2018-12-19T22:25:18.930Z,2.00
2018-12-19T22:27:56.729Z,2.00
2018-12-19T22:30:27.972Z,2.00
2018-12-19T22:33:01.669Z,2.00
2018-12-19T22:35:42.490Z,2.00
2018-12-19T22:38:16.703Z,2.00
2018-12-19T22:40:47.318Z,2.00
2018-12-19T22:43:25.161Z,2.00
2018-12-19T22:46:05.278Z,2.00
2018-12-19T22:48:39.590Z,2.10
2018-12-19T22:51:13.634Z,2.00
2018-12-19T22:53:54.463Z,2.10
2018-12-19T22:56:35.239Z,2.10
2018-12-19T22:59:16.211Z,2.10
2018-12-19T23:01:53.316Z,2.10
2018-12-19T23:04:34.135Z,2.10
2018-12-19T23:07:08.579Z,2.10
2018-12-19T23:09:39.910Z,2.10
2018-12-19T23:12:20.348Z,2.10
2018-12-19T23:14:51.927Z,2.10
2018-12-19T23:17:37.991Z,2.10
2018-12-19T23:20:09.995Z,2.10
2018-12-19T23:22:50.403Z,2.10
2018-12-19T23:25:20.944Z,2.10
2018-12-19T23:28:01.652Z,2.10
2018-12-19T23:30:33.070Z,2.10
2018-12-19T23:33:13.608Z,2.10
2018-12-19T23:35:54.328Z,2.10
2018-12-19T23:38:34.510Z,2.10
2018-12-19T23:41:05.462Z,2.10
2018-12-19T23:43:45.983Z,2.10
2018-12-19T23:46:26.890Z,2.10
2018-12-19T23:49:06.852Z,2.10
2018-12-19T23:51:37.389Z,2.10
2018-12-19T23:54:08.638Z,2.10
2018-12-19T23:56:49.235Z,2.10
2018-12-19T23:59:23.504Z,2.10
